Nearby METAR Reports

 

YMER - Merimbula Arpt, Australia
Distance from station: SE 12km
Updated: Thu, 24-Oct-2019 12:00am AEDT
Clear
Clear
 Wind from calm
Wind: Calm
Temperature: 11°C
Dew Point: 10°C
Humidity: 94%
Barometer: 1019 hPa
Clouds: Clear
Visibility: 10 km
2019/10/23 13:00 YMER 231300Z AUTO 00000KT 9999 // NCD 11/10 Q1019
YCOM - Cooma Snowy Mtns, Australia
Distance from station: NW 96km
Updated: Thu, 24-Oct-2019 12:00am AEDT
Clear
Clear
 Wind from WNW
Wind: WNW 2 km/h
Temperature: 10°C
Dew Point: 2°C
Humidity: 58%
Barometer: 1022 hPa
Clouds: Clear
Visibility: 10 km
2019/10/23 13:00 YCOM 231300Z AUTO 29001KT 9999 // NCD 10/02 Q1022
 
YSCB - Canberra (civ/Mi, Australia
Distance from station: NNW 182km
Updated: Thu, 24-Oct-2019 12:00am AEDT
Clear
Clear
 Wind from E
Wind: E 2 km/h
Temperature: 15°C
Dew Point: 2°C
Humidity: 42%
Barometer: 1021 hPa
Clouds: Clear
Visibility: 10 km
2019/10/23 13:00 YSCB 231300Z AUTO 09001KT 9999 // NCD 15/02 Q1021
YSNW - Nowra (aus-Navy), Australia
Distance from station: NNE 219km
Updated: Thu, 24-Oct-2019 12:00am AEDT
Clear
Clear
 Wind from SSW
Wind: SSW 7 km/h
Temperature: 16°C
Dew Point: 16°C
Humidity: 100%
Barometer: 1019 hPa
Clouds: Clear
Visibility: 10 km
2019/10/23 13:00 YSNW 231300Z AUTO 21004KT 9999 // NCD 16/16 Q1019
 
YMAY - Albury Airport, Australia
Distance from station: WNW 271km
Updated: Thu, 24-Oct-2019 12:03am AEDT
Clear
Clear
 Wind from calm
Wind: Calm
Temperature: 13°C
Dew Point: 6°C
Humidity: 63%
Barometer: 1018 hPa
Clouds: Clear
Visibility: 3 km
2019/10/23 13:03 YMAY 231303Z AUTO 00000KT 3100 // NCD 13/06 Q1018
YSWG - Wagga Wagga(Cv/M, Australia
Distance from station: NW 283km
Updated: Thu, 24-Oct-2019 12:00am AEDT
Clear
Clear
 Wind from E
Wind: E 11 km/h
Temperature: 16°C
Dew Point: 1°C
Humidity: 36%
Barometer: 1018 hPa
Clouds: Clear
Visibility: 10 km
2019/10/23 13:00 YSWG 231300Z AUTO 08006KT 9999 // NCD 16/01 Q1018
 
YWGT - Wangaratta Arp, Australia
Distance from station: W 317km
Updated: Thu, 24-Oct-2019 12:07am AEDT
Clear
Clear
 Wind from SW
Wind: SW 7 km/h
Temperature: 10°C
Wind Chill: 9°C
Dew Point: 7°C
Humidity: 82%
Barometer: 1018 hPa
Clouds: Clear
Visibility: 6 km
2019/10/23 13:07 YWGT 231307Z AUTO 22004KT 6000 // NCD 10/07 Q1018
YSSY - Sydney Intl Airp, Australia
Distance from station: NNE 343km
Updated: Thu, 24-Oct-2019 12:00am AEDT
Clear
Clear
 Wind from calm
Wind: Calm
Temperature: 19°C
Dew Point: 16°C
Humidity: 83%
Barometer: 1017 hPa
Summary: Clear
Visibility: greater than 10 km
2019/10/23 13:00 YSSY 231300Z 00000KT CAVOK 19/16 Q1017